Time;durP1;ratioP1;P1;durP2;ratioP2;P2;SDS_P1;SDS_P2;PMS_P1;PMS_P2;Temp;Humidity;BMP_temperature;BMP_pressure;BME280_temperature;BME280_humidity;BME280_pressure;Samples;Min_cycle;Max_cycle;Signal;HPM_P1;HPM_P2
2023/09/14 00:00:55;;;;;;;3.42;1.20;;;19.30;59.90;21.00;102138.00;;;;5111065;28;20226;-91
2023/09/14 00:03:22;;;;;;;4.82;1.50;;;19.30;59.90;21.00;102140.00;;;;5116032;28;20214;-90
2023/09/14 00:05:59;;;;;;;3.70;1.55;;;19.30;59.80;21.00;102137.00;;;;5115280;28;20194;-91
2023/09/14 00:08:30;;;;;;;4.35;1.20;;;19.30;59.90;21.00;102137.00;;;;5115676;28;20577;-91
2023/09/14 00:11:03;;;;;;;3.00;1.60;;;19.40;59.80;21.00;102141.00;;;;5099635;28;20186;-90
2023/09/14 00:13:53;;;;;;;3.75;1.50;;;19.40;59.70;20.90;102138.00;;;;5114968;28;20198;-90
2023/09/14 00:16:20;;;;;;;2.35;1.10;;;19.40;59.90;21.10;102140.00;;;;5115276;28;20212;-90
2023/09/14 00:19:16;;;;;;;2.97;1.00;;;19.40;59.60;20.90;102146.00;;;;5116357;27;20211;-91
2023/09/14 00:21:44;;;;;;;4.32;1.35;;;19.40;59.90;21.10;102145.00;;;;5102586;28;20191;-91
2023/09/14 00:24:12;;;;;;;3.88;1.27;;;19.40;59.60;21.10;102144.00;;;;5099564;28;20206;-90
2023/09/14 00:26:44;;;;;;;3.03;1.35;;;19.40;59.60;21.00;102145.00;;;;5116010;28;20204;-91
2023/09/14 00:29:22;;;;;;;3.90;1.33;;;19.40;59.70;21.00;102148.00;;;;5115529;28;20269;-91
2023/09/14 00:31:51;;;;;;;2.42;1.20;;;19.40;59.80;21.10;102147.00;;;;5115631;28;20182;-91
2023/09/14 00:34:26;;;;;;;4.25;1.30;;;19.40;59.70;21.00;102145.00;;;;5115002;28;20229;-91
2023/09/14 00:36:58;;;;;;;5.40;1.98;;;19.40;59.90;21.10;102142.00;;;;5094751;28;20194;-90
2023/09/14 00:39:25;;;;;;;3.22;1.20;;;19.40;59.90;21.10;102144.00;;;;5112790;28;20202;-91
2023/09/14 00:41:55;;;;;;;4.00;1.45;;;19.40;59.80;21.10;102140.00;;;;5121272;27;20193;-90
2023/09/14 00:44:34;;;;;;;2.55;1.33;;;19.40;59.80;21.00;102140.00;;;;5129723;27;20193;-91
2023/09/14 00:47:03;;;;;;;3.97;1.40;;;19.40;59.90;21.10;102140.00;;;;5114034;28;20639;-91
2023/09/14 00:49:38;;;;;;;5.57;1.83;;;19.40;59.80;21.10;102136.00;;;;5105161;28;20190;-91
2023/09/14 00:52:13;;;;;;;6.05;2.05;;;19.40;59.80;21.10;102136.00;;;;5093656;28;20280;-91
2023/09/14 00:54:46;;;;;;;3.70;1.60;;;19.40;59.80;21.00;102139.00;;;;5093896;28;20222;-91
2023/09/14 00:57:17;;;;;;;5.00;1.65;;;19.40;59.70;21.10;102144.00;;;;5096320;28;20269;-91
2023/09/14 00:59:45;;;;;;;3.83;1.17;;;19.40;59.70;21.10;102132.00;;;;5106771;28;21292;-91
2023/09/14 01:02:35;;;;;;;4.82;1.70;;;19.40;59.70;21.00;102138.00;;;;5106585;27;20190;-91
2023/09/14 01:05:07;;;;;;;2.95;1.40;;;19.40;59.80;21.10;102147.00;;;;5109754;28;20678;-91
2023/09/14 01:07:37;;;;;;;3.35;1.10;;;19.40;59.60;21.10;102147.00;;;;5105486;28;20277;-89
2023/09/14 01:10:21;;;;;;;6.00;1.90;;;19.40;59.60;21.00;102147.00;;;;5111051;27;20655;-91
2023/09/14 01:13:13;;;;;;;3.45;1.65;;;19.40;59.70;20.90;102144.00;;;;5108599;28;20217;-91
2023/09/14 01:15:55;;;;;;;5.25;1.98;;;19.40;59.70;20.90;102147.00;;;;5101149;27;21088;-91
2023/09/14 01:18:31;;;;;;;4.00;1.33;;;19.40;59.60;20.90;102145.00;;;;5112703;28;20197;-91
2023/09/14 01:21:31;;;;;;;3.05;1.30;;;19.30;59.50;20.90;102143.00;;;;5113418;28;20182;-91
2023/09/14 01:24:18;;;;;;;5.50;1.23;;;19.30;59.70;20.80;102146.00;;;;5115022;28;20190;-90
2023/09/14 01:26:58;;;;;;;2.83;1.38;;;19.20;59.50;20.90;102140.00;;;;5114107;28;20190;-91
2023/09/14 01:29:26;;;;;;;2.53;1.27;;;19.20;59.50;20.90;102137.00;;;;5114462;28;20193;-91
2023/09/14 01:31:59;;;;;;;3.08;1.58;;;19.20;59.40;20.90;102133.00;;;;5125839;27;20212;-91
2023/09/14 01:34:28;;;;;;;2.08;1.10;;;19.20;59.50;20.90;102133.00;;;;5094027;28;20233;-92
2023/09/14 01:37:10;;;;;;;3.30;0.88;;;19.20;59.40;20.80;102129.00;;;;5110179;28;20254;-91
2023/09/14 01:39:40;;;;;;;3.47;1.30;;;19.10;59.50;20.80;102142.00;;;;5099109;28;22403;-91
2023/09/14 01:42:09;;;;;;;2.17;0.95;;;19.10;59.40;20.80;102129.00;;;;5120033;28;20197;-91
2023/09/14 01:45:12;;;;;;;3.53;1.10;;;19.10;59.50;20.70;102140.00;;;;5114864;28;20182;-91
2023/09/14 01:47:39;;;;;;;3.70;1.42;;;19.10;59.80;20.80;102142.00;;;;5109851;28;20651;-91
2023/09/14 01:50:11;;;;;;;3.90;1.30;;;19.10;59.50;20.70;102141.00;;;;5113216;28;20205;-89
2023/09/14 01:52:52;;;;;;;3.67;1.20;;;19.00;59.60;20.60;102138.00;;;;5111630;28;20193;-91
2023/09/14 01:55:26;;;;;;;5.05;1.27;;;19.00;59.80;20.60;102137.00;;;;5113482;28;20221;-91
2023/09/14 01:58:00;;;;;;;3.05;1.70;;;19.00;59.70;20.50;102136.00;;;;5113473;28;20189;-91
2023/09/14 02:00:27;;;;;;;4.07;1.55;;;18.90;59.70;20.60;102135.00;;;;5106918;28;20224;-91
2023/09/14 02:03:07;;;;;;;1.67;1.08;;;18.80;59.60;20.40;102132.00;;;;5107734;28;20565;-91
2023/09/14 02:05:41;;;;;;;1.60;1.30;;;18.80;59.90;20.40;102143.00;;;;5104337;28;20200;-91
2023/09/14 02:08:11;;;;;;;1.95;1.05;;;18.80;59.80;20.40;102134.00;;;;5111863;28;20195;-90
2023/09/14 02:10:45;;;;;;;4.38;1.65;;;18.70;59.60;20.30;102126.00;;;;5113031;28;20185;-91
2023/09/14 02:13:43;;;;;;;2.20;1.30;;;18.70;59.80;20.20;102125.00;;;;5095629;28;20228;-91
2023/09/14 02:16:11;;;;;;;6.38;1.50;;;18.70;60.00;20.30;102126.00;;;;5098303;28;20205;-91
2023/09/14 02:18:46;;;;;;;3.00;1.23;;;18.60;59.70;20.20;102118.00;;;;5118266;28;20197;-91
2023/09/14 02:21:16;;;;;;;7.30;1.60;;;18.60;59.80;20.30;102116.00;;;;5112549;28;20189;-91
2023/09/14 02:24:09;;;;;;;1.55;1.05;;;18.60;59.70;20.10;102117.00;;;;5100928;28;20201;-91
2023/09/14 02:26:44;;;;;;;2.60;1.40;;;18.50;60.00;20.10;102117.00;;;;5104354;28;20185;-91
2023/09/14 02:29:13;;;;;;;3.88;1.30;;;18.50;59.90;20.10;102119.00;;;;5113428;28;20189;-92
2023/09/14 02:31:54;;;;;;;1.95;1.20;;;18.40;59.70;20.00;102118.00;;;;5094056;28;20209;-91
2023/09/14 02:34:22;;;;;;;1.77;1.23;;;18.40;60.00;20.10;102114.00;;;;5101875;28;20540;-91
2023/09/14 02:36:51;;;;;;;2.47;1.45;;;18.40;59.80;20.00;102116.00;;;;5120191;27;20567;-91
2023/09/14 02:39:20;;;;;;;2.28;1.27;;;18.30;59.90;20.00;102120.00;;;;5104551;28;20682;-90
2023/09/14 02:41:49;;;;;;;5.20;1.23;;;18.30;60.00;20.00;102120.00;;;;5113221;28;20199;-90
2023/09/14 02:44:27;;;;;;;3.47;1.40;;;18.30;60.00;19.90;102117.00;;;;5109477;28;20204;-90
2023/09/14 02:46:56;;;;;;;2.25;1.13;;;18.20;60.20;19.90;102118.00;;;;5112886;28;20201;-89
2023/09/14 02:49:36;;;;;;;1.42;0.90;;;18.20;60.10;19.80;102115.00;;;;5096717;28;20198;-91
2023/09/14 02:52:04;;;;;;;4.90;1.77;;;18.10;60.30;19.80;102116.00;;;;5097089;28;20182;-91
2023/09/14 02:54:32;;;;;;;2.70;1.17;;;18.10;60.10;19.80;102113.00;;;;5096405;28;20205;-91
2023/09/14 02:57:12;;;;;;;2.97;1.30;;;18.10;60.20;19.70;102103.00;;;;5096978;28;20205;-91
2023/09/14 02:59:46;;;;;;;4.40;1.70;;;18.00;60.50;19.70;102103.00;;;;5097745;28;20578;-91
2023/09/14 03:02:20;;;;;;;3.55;1.58;;;18.00;60.50;19.70;102106.00;;;;5098228;28;20221;-90
2023/09/14 03:04:51;;;;;;;3.75;1.92;;;18.00;60.40;19.60;102101.00;;;;5116470;28;20647;-91
2023/09/14 03:07:32;;;;;;;1.77;1.40;;;18.00;60.40;19.50;102096.00;;;;5116919;28;20186;-91
2023/09/14 03:10:07;;;;;;;4.00;1.52;;;17.90;60.50;19.60;102092.00;;;;5116904;28;20203;-91
2023/09/14 03:12:35;;;;;;;4.22;1.40;;;17.90;60.40;19.60;102097.00;;;;5113962;28;20213;-91
2023/09/14 03:15:04;;;;;;;2.67;1.77;;;17.90;60.40;19.60;102085.00;;;;5114287;28;20210;-90
2023/09/14 03:17:37;;;;;;;2.25;1.50;;;17.80;60.40;19.50;102093.00;;;;5116802;28;20178;-91
2023/09/14 03:20:27;;;;;;;4.15;1.42;;;17.80;60.50;19.40;102104.00;;;;5116738;28;20217;-91
2023/09/14 03:22:54;;;;;;;2.22;1.15;;;17.70;60.60;19.50;102099.00;;;;5116770;28;20243;-90
2023/09/14 03:25:30;;;;;;;2.72;1.38;;;17.80;60.40;19.40;102099.00;;;;5118951;28;20201;-91
2023/09/14 03:27:57;;;;;;;3.47;1.95;;;17.70;60.50;19.50;102104.00;;;;5104545;28;20193;-88
2023/09/14 03:30:33;;;;;;;3.15;1.75;;;17.70;60.50;19.40;102105.00;;;;5116600;28;20647;-91
2023/09/14 03:33:11;;;;;;;4.32;1.50;;;17.70;60.50;19.30;102106.00;;;;5105432;28;20202;-91
2023/09/14 03:35:45;;;;;;;1.65;1.20;;;17.60;60.60;19.30;102105.00;;;;5112020;27;20209;-91
2023/09/14 03:38:24;;;;;;;2.05;1.33;;;17.60;60.50;19.30;102105.00;;;;5115760;28;20231;-91
2023/09/14 03:40:56;;;;;;;3.10;1.23;;;17.60;60.60;19.30;102109.00;;;;5115923;28;20196;-91
2023/09/14 03:43:28;;;;;;;3.08;1.48;;;17.60;60.60;19.30;102111.00;;;;5115290;28;20596;-91
2023/09/14 03:46:01;;;;;;;3.15;1.50;;;17.60;60.60;19.20;102103.00;;;;5115929;28;20194;-91
2023/09/14 03:48:28;;;;;;;3.33;1.45;;;17.50;60.50;19.30;102109.00;;;;5115300;28;20201;-91
2023/09/14 03:51:09;;;;;;;2.72;1.58;;;17.50;60.60;19.20;102106.00;;;;5115171;28;20193;-91
2023/09/14 03:53:46;;;;;;;3.05;1.63;;;17.50;60.80;19.10;102114.00;;;;5115064;28;20197;-91
2023/09/14 03:56:17;;;;;;;2.85;1.58;;;17.40;60.60;19.10;102109.00;;;;5115655;28;20556;-91
2023/09/14 03:58:56;;;;;;;4.18;1.50;;;17.40;60.50;19.00;102106.00;;;;5101813;28;20190;-90
2023/09/14 04:01:29;;;;;;;2.17;1.70;;;17.40;60.60;19.10;102109.00;;;;5105269;28;20589;-91
2023/09/14 04:04:03;;;;;;;5.55;1.60;;;17.40;60.50;19.00;102103.00;;;;5115293;28;20308;-91
2023/09/14 04:06:40;;;;;;;2.97;1.70;;;17.30;60.50;19.00;102102.00;;;;5101948;28;20583;-91
2023/09/14 04:09:09;;;;;;;4.03;1.15;;;17.30;60.60;19.00;102100.00;;;;5106325;28;20526;-91
2023/09/14 04:11:42;;;;;;;4.68;1.45;;;17.30;60.70;19.00;102107.00;;;;5114824;28;20293;-91
2023/09/14 04:14:11;;;;;;;4.20;1.52;;;17.20;60.50;19.00;102092.00;;;;5106271;28;20190;-91
2023/09/14 04:17:12;;;;;;;3.83;1.48;;;17.20;60.60;18.80;102100.00;;;;5100726;28;20672;-91
2023/09/14 04:19:50;;;;;;;1.80;1.45;;;17.20;60.80;18.80;102106.00;;;;5114727;28;20187;-91
2023/09/14 04:22:18;;;;;;;3.88;1.27;;;17.20;60.70;18.90;102105.00;;;;5114143;28;20197;-91
2023/09/14 04:24:45;;;;;;;3.17;1.70;;;17.10;60.60;18.90;102106.00;;;;5114712;28;20194;-91
2023/09/14 04:27:17;;;;;;;3.63;1.75;;;17.10;60.60;18.80;102103.00;;;;5106680;28;20255;-91
2023/09/14 04:29:49;;;;;;;2.65;1.50;;;17.10;60.70;18.80;102100.00;;;;5114423;28;20194;-91
2023/09/14 04:32:21;;;;;;;3.72;1.90;;;17.10;61.50;18.80;102098.00;;;;5114590;28;20189;-91
2023/09/14 04:34:48;;;;;;;2.90;1.27;;;17.00;60.70;18.80;102104.00;;;;5114326;28;20202;-91
2023/09/14 04:37:15;;;;;;;1.85;1.25;;;17.10;60.80;18.80;102111.00;;;;5114285;28;20224;-91
2023/09/14 04:39:45;;;;;;;2.25;1.65;;;17.00;60.70;18.80;102105.00;;;;5114025;28;20197;-90
2023/09/14 04:42:26;;;;;;;2.42;1.30;;;17.00;60.80;18.60;102106.00;;;;5114397;28;20296;-91
2023/09/14 04:44:54;;;;;;;2.45;1.48;;;16.90;61.00;18.70;102108.00;;;;5113035;28;20204;-92
2023/09/14 04:47:30;;;;;;;2.28;1.15;;;16.90;60.80;18.60;102104.00;;;;5115087;28;20182;-91
2023/09/14 04:49:58;;;;;;;2.47;1.25;;;16.90;60.90;18.70;102102.00;;;;5098477;28;20181;-92
2023/09/14 04:52:25;;;;;;;2.85;1.50;;;16.90;60.80;18.70;102103.00;;;;5114521;28;20212;-91
2023/09/14 04:55:07;;;;;;;4.25;2.20;;;16.90;60.80;18.60;102111.00;;;;5114002;28;20194;-91
2023/09/14 04:57:34;;;;;;;2.60;1.48;;;16.90;61.00;18.60;102109.00;;;;5112434;28;20208;-90
2023/09/14 05:00:47;;;;;;;2.80;1.65;;;16.80;60.80;18.50;102118.00;;;;5112894;28;20185;-92
2023/09/14 05:03:16;;;;;;;3.60;1.48;;;16.80;61.10;18.60;102125.00;;;;5059343;28;20206;-91
2023/09/14 05:05:49;;;;;;;2.75;1.58;;;16.80;60.80;18.60;102117.00;;;;5064788;28;20236;-91
2023/09/14 05:08:18;;;;;;;3.85;1.40;;;16.80;60.90;18.50;102103.00;;;;5067093;28;20231;-91
2023/09/14 05:10:53;;;;;;;2.75;2.03;;;16.80;60.90;18.50;102109.00;;;;5053461;28;20196;-92
2023/09/14 05:13:21;;;;;;;2.80;1.92;;;16.70;61.00;18.50;102115.00;;;;5058248;28;20233;-91
2023/09/14 05:15:50;;;;;;;2.38;1.38;;;16.70;60.90;18.50;102110.00;;;;5056437;28;20669;-91
2023/09/14 05:18:18;;;;;;;2.15;1.40;;;16.70;61.00;18.50;102105.00;;;;5058729;28;20656;-89
2023/09/14 05:20:48;;;;;;;2.42;1.52;;;16.70;61.00;18.50;102105.00;;;;5060407;28;20209;-92
2023/09/14 05:23:17;;;;;;;2.92;1.50;;;16.70;61.10;18.50;102114.00;;;;5073585;28;20195;-91
2023/09/14 05:25:53;;;;;;;3.05;1.85;;;16.70;61.20;18.40;102106.00;;;;5073696;28;20183;-91
2023/09/14 05:28:20;;;;;;;2.22;1.80;;;16.70;61.30;18.50;102107.00;;;;5056278;28;20194;-91
2023/09/14 05:31:21;;;;;;;2.40;1.33;;;16.70;61.30;18.30;102117.00;;;;5053942;28;20199;-89
2023/09/14 05:33:58;;;;;;;3.45;1.73;;;16.60;61.60;18.40;102116.00;;;;5053133;28;20685;-92
2023/09/14 05:36:34;;;;;;;2.58;1.50;;;16.70;61.40;18.40;102122.00;;;;5062093;28;20222;-92
2023/09/14 05:39:02;;;;;;;3.65;1.60;;;16.60;61.50;18.50;102121.00;;;;5066542;28;20199;-93
2023/09/14 05:41:31;;;;;;;2.65;1.30;;;16.70;61.40;18.50;102132.00;;;;5054750;28;20199;-92
2023/09/14 05:43:58;;;;;;;3.70;1.58;;;16.60;61.50;18.50;102118.00;;;;5052422;28;20200;-89
2023/09/14 05:46:25;;;;;;;2.75;1.92;;;16.60;61.60;18.50;102132.00;;;;5065749;28;20198;-89
2023/09/14 05:48:53;;;;;;;5.05;2.10;;;16.70;61.70;18.50;102135.00;;;;5069523;28;20227;-86
2023/09/14 05:51:23;;;;;;;3.42;1.33;;;16.70;61.70;18.50;102131.00;;;;5067688;28;20574;-86
2023/09/14 05:53:50;;;;;;;2.90;1.60;;;16.60;61.70;18.50;102132.00;;;;5065404;28;20213;-85
2023/09/14 05:56:23;;;;;;;2.50;1.48;;;16.70;61.90;18.50;102132.00;;;;5051415;28;20219;-89
2023/09/14 05:58:56;;;;;;;4.22;1.75;;;16.70;62.00;18.50;102128.00;;;;5052018;28;20206;-87
2023/09/14 06:01:23;;;;;;;6.35;2.10;;;16.70;62.10;18.60;102140.00;;;;5072965;28;20221;-85
2023/09/14 06:03:50;;;;;;;4.45;1.67;;;16.70;62.10;18.60;102132.00;;;;5106651;28;20647;-84
2023/09/14 06:06:17;;;;;;;2.38;1.40;;;16.80;62.20;18.70;102137.00;;;;5099957;28;20198;-89
2023/09/14 06:08:46;;;;;;;4.80;1.70;;;16.80;62.30;18.70;102137.00;;;;5119341;28;20201;-90
2023/09/14 06:11:14;;;;;;;4.00;1.75;;;16.80;62.50;18.70;102132.00;;;;5107832;28;20597;-88
2023/09/14 06:13:50;;;;;;;3.58;1.88;;;16.90;62.60;18.70;102133.00;;;;5099303;28;20572;-89
2023/09/14 06:16:17;;;;;;;2.97;1.35;;;16.90;62.90;18.90;102136.00;;;;5097465;28;20210;-88
2023/09/14 06:18:46;;;;;;;2.90;1.65;;;16.90;62.80;18.90;102136.00;;;;5096563;28;20190;-88
2023/09/14 06:21:19;;;;;;;2.92;1.38;;;17.00;62.90;18.90;102136.00;;;;5096708;28;21268;-87
2023/09/14 06:23:53;;;;;;;8.27;1.80;;;17.10;63.20;19.00;102146.00;;;;5096091;28;20856;-86
2023/09/14 06:26:28;;;;;;;3.70;1.85;;;17.10;63.20;19.00;102148.00;;;;5096541;28;20205;-87
2023/09/14 06:28:55;;;;;;;3.40;2.30;;;17.20;63.30;19.10;102146.00;;;;5095780;28;20205;-87
2023/09/14 06:31:23;;;;;;;2.50;2.15;;;17.30;63.20;19.20;102148.00;;;;5109354;28;20196;-88
2023/09/14 06:33:52;;;;;;;8.95;2.65;;;17.30;63.30;19.30;102145.00;;;;5106280;27;20197;-87
2023/09/14 06:36:19;;;;;;;2.60;1.80;;;17.30;63.30;19.30;102142.00;;;;5114567;27;20224;-87
2023/09/14 06:38:47;;;;;;;3.75;1.73;;;17.40;63.40;19.40;102146.00;;;;5107654;28;20209;-87
2023/09/14 06:41:17;;;;;;;2.88;2.10;;;17.50;63.50;19.50;102141.00;;;;5101803;28;20644;-85
2023/09/14 06:43:45;;;;;;;3.88;1.90;;;17.60;63.60;19.60;102136.00;;;;5107665;28;20216;-89
2023/09/14 06:46:13;;;;;;;4.30;1.63;;;17.70;63.60;19.60;102131.00;;;;5116248;28;20200;-86
2023/09/14 06:48:40;;;;;;;8.35;2.35;;;17.80;63.50;19.70;102142.00;;;;5112364;28;20201;-87
2023/09/14 06:51:09;;;;;;;3.25;1.73;;;17.80;63.50;19.80;102143.00;;;;5117689;28;20201;-87
2023/09/14 06:53:37;;;;;;;6.15;2.22;;;17.90;63.60;19.90;102144.00;;;;5118254;27;20192;-89
2023/09/14 06:56:07;;;;;;;5.55;1.77;;;18.00;63.60;20.00;102145.00;;;;5119164;28;20592;-89
2023/09/14 06:58:37;;;;;;;5.68;1.98;;;18.10;63.60;20.10;102149.00;;;;5118118;28;20190;-89
2023/09/14 07:01:05;;;;;;;2.30;1.42;;;18.20;63.60;20.10;102141.00;;;;5117920;28;20229;-89
2023/09/14 07:03:34;;;;;;;4.05;1.88;;;18.30;63.40;20.20;102141.00;;;;5113643;28;20200;-88
2023/09/14 07:06:02;;;;;;;5.10;2.10;;;18.40;63.50;20.30;102147.00;;;;5112140;27;20200;-85
2023/09/14 07:08:30;;;;;;;5.70;1.88;;;18.50;63.30;20.40;102147.00;;;;5115217;28;20263;-85
2023/09/14 07:10:57;;;;;;;5.45;1.63;;;18.60;63.30;20.50;102150.00;;;;5116868;27;20583;-88
2023/09/14 07:13:25;;;;;;;5.78;1.88;;;18.60;63.20;20.60;102154.00;;;;5108221;28;20209;-88
2023/09/14 07:15:54;;;;;;;2.70;1.67;;;18.70;63.20;20.60;102153.00;;;;5110951;28;20275;-88
2023/09/14 07:18:28;;;;;;;3.38;2.05;;;18.80;63.10;20.70;102146.00;;;;5101461;28;20194;-87
2023/09/14 07:20:58;;;;;;;4.60;2.00;;;18.90;63.10;20.80;102152.00;;;;5111172;28;20193;-86
2023/09/14 07:23:26;;;;;;;4.10;2.17;;;19.00;62.90;20.80;102153.00;;;;5103531;28;20227;-87
2023/09/14 07:25:55;;;;;;;3.75;1.80;;;19.10;62.70;20.90;102148.00;;;;5112599;28;20201;-88
2023/09/14 07:28:23;;;;;;;6.45;2.42;;;19.10;62.60;21.00;102156.00;;;;5112606;28;20200;-86
2023/09/14 07:30:54;;;;;;;3.78;1.70;;;19.20;63.20;21.00;102159.00;;;;5107600;28;20206;-86
2023/09/14 07:33:24;;;;;;;9.88;1.88;;;19.30;62.40;21.10;102167.00;;;;5110627;28;20197;-84
2023/09/14 07:35:51;;;;;;;4.18;1.65;;;19.30;62.40;21.20;102164.00;;;;5103841;28;20205;-83
2023/09/14 07:38:18;;;;;;;4.32;1.80;;;19.40;62.30;21.30;102172.00;;;;5107606;28;20222;-84
2023/09/14 07:40:44;;;;;;;3.83;2.10;;;19.50;62.20;21.30;102164.00;;;;5099883;28;20690;-84
2023/09/14 07:43:12;;;;;;;5.25;1.98;;;19.60;62.20;21.40;102160.00;;;;5105825;28;20224;-83
2023/09/14 07:45:39;;;;;;;3.22;1.83;;;19.60;62.10;21.40;102169.00;;;;5109430;27;20670;-83
2023/09/14 07:48:09;;;;;;;4.90;2.47;;;19.70;62.00;21.40;102168.00;;;;5103618;28;20198;-84
2023/09/14 07:50:39;;;;;;;4.65;2.40;;;19.70;61.80;21.50;102168.00;;;;5107153;28;20643;-84
2023/09/14 07:53:07;;;;;;;6.00;2.00;;;19.80;61.80;21.60;102167.00;;;;5107943;28;20194;-84
2023/09/14 07:55:34;;;;;;;6.05;2.13;;;19.90;61.90;21.60;102177.00;;;;5107056;28;20196;-84
2023/09/14 07:58:01;;;;;;;5.40;2.45;;;19.90;61.80;21.70;102179.00;;;;5097533;28;20233;-84
2023/09/14 08:00:28;;;;;;;8.18;2.67;;;19.90;61.70;21.70;102176.00;;;;5097896;28;20208;-84
2023/09/14 08:02:55;;;;;;;3.40;2.00;;;20.00;61.80;21.80;102174.00;;;;5106337;28;20237;-84
2023/09/14 08:05:24;;;;;;;4.03;2.63;;;20.00;61.80;21.80;102180.00;;;;5096053;28;20205;-87
2023/09/14 08:07:54;;;;;;;6.15;2.67;;;20.10;61.80;21.90;102176.00;;;;5103097;28;20286;-84
2023/09/14 08:10:21;;;;;;;5.25;2.50;;;20.20;61.80;22.00;102176.00;;;;5102908;28;20669;-83
2023/09/14 08:12:48;;;;;;;4.57;2.30;;;20.30;61.90;22.10;102173.00;;;;5094724;28;20714;-84
2023/09/14 08:15:15;;;;;;;3.80;2.22;;;20.30;61.80;22.20;102182.00;;;;5101771;28;20190;-84
2023/09/14 08:17:43;;;;;;;6.63;2.70;;;20.40;61.80;22.30;102175.00;;;;5103871;28;20290;-83
2023/09/14 08:20:12;;;;;;;4.85;2.63;;;20.50;61.70;22.30;102176.00;;;;5097120;28;20194;-84
2023/09/14 08:22:40;;;;;;;4.43;2.70;;;20.60;61.80;22.40;102172.00;;;;5106904;28;20197;-85
2023/09/14 08:25:10;;;;;;;6.10;2.35;;;20.60;61.80;22.50;102177.00;;;;5103741;28;20194;-83
2023/09/14 08:27:39;;;;;;;4.60;2.45;;;20.70;61.80;22.60;102187.00;;;;5103730;28;20194;-85
2023/09/14 08:30:10;;;;;;;3.08;2.45;;;20.80;61.90;22.70;102183.00;;;;5104208;28;20607;-83
2023/09/14 08:32:37;;;;;;;3.90;2.65;;;20.90;61.90;22.80;102187.00;;;;5106352;28;20205;-84
2023/09/14 08:35:21;;;;;;;3.92;2.80;;;21.00;61.90;22.80;102182.00;;;;5095905;28;20248;-84
2023/09/14 08:37:52;;;;;;;7.28;2.53;;;21.10;62.30;22.90;102189.00;;;;5106837;28;20220;-84
2023/09/14 08:40:20;;;;;;;5.05;2.40;;;21.20;61.50;23.00;102182.00;;;;5097235;28;20251;-84
2023/09/14 08:42:51;;;;;;;4.05;3.05;;;21.30;61.40;23.10;102184.00;;;;5107093;28;20193;-84
2023/09/14 08:45:25;;;;;;;4.32;2.63;;;21.40;61.30;23.20;102181.00;;;;5106124;28;20198;-83
2023/09/14 08:47:54;;;;;;;7.82;2.70;;;21.50;61.00;23.20;102186.00;;;;5102978;27;20285;-83
2023/09/14 08:50:25;;;;;;;4.05;2.65;;;21.50;60.70;23.30;102187.00;;;;5104952;28;20193;-84
2023/09/14 08:52:54;;;;;;;4.00;2.63;;;21.60;60.60;23.40;102191.00;;;;5097442;28;20204;-84
2023/09/14 08:55:24;;;;;;;4.07;2.83;;;21.60;60.60;23.40;102187.00;;;;5102112;28;20196;-83
2023/09/14 08:57:54;;;;;;;4.28;2.47;;;21.70;60.50;23.50;102181.00;;;;5107249;28;20252;-85
2023/09/14 09:00:22;;;;;;;5.57;3.38;;;21.80;60.30;23.50;102183.00;;;;5100808;28;20196;-84
2023/09/14 09:02:54;;;;;;;6.65;2.97;;;21.90;60.30;23.60;102184.00;;;;5106338;28;20225;-87
2023/09/14 09:05:25;;;;;;;4.45;2.75;;;21.90;60.40;23.70;102187.00;;;;5101163;28;20572;-88
2023/09/14 09:07:58;;;;;;;3.92;3.22;;;22.00;60.40;23.80;102187.00;;;;5104052;28;20197;-89
2023/09/14 09:10:34;;;;;;;7.18;3.45;;;22.10;60.20;23.80;102180.00;;;;5114501;28;20223;-87
2023/09/14 09:13:04;;;;;;;5.22;2.45;;;22.20;59.90;24.00;102183.00;;;;5111489;28;20217;-88
2023/09/14 09:15:34;;;;;;;4.05;2.83;;;22.30;60.00;24.00;102179.00;;;;5113850;28;20193;-88
2023/09/14 09:18:06;;;;;;;4.30;2.83;;;22.40;59.90;24.10;102176.00;;;;5100826;28;20626;-88
2023/09/14 09:20:37;;;;;;;5.07;3.22;;;22.40;59.90;24.20;102168.00;;;;5108991;28;20200;-89
2023/09/14 09:23:06;;;;;;;5.07;2.92;;;22.50;60.10;24.30;102181.00;;;;5105724;28;20206;-87
2023/09/14 09:25:44;;;;;;;4.30;2.47;;;22.60;59.90;24.30;102184.00;;;;5093298;28;20202;-86
2023/09/14 09:28:11;;;;;;;3.13;2.33;;;22.70;59.60;24.50;102176.00;;;;5095663;28;20209;-86
2023/09/14 09:30:38;;;;;;;4.68;2.60;;;22.80;59.50;24.50;102174.00;;;;5098373;28;20190;-86
2023/09/14 09:33:06;;;;;;;5.65;3.03;;;22.90;59.40;24.60;102164.00;;;;5107934;28;20197;-88
2023/09/14 09:35:34;;;;;;;3.85;2.33;;;23.00;59.20;24.70;102178.00;;;;5108605;28;20201;-89
2023/09/14 09:38:14;;;;;;;3.03;2.35;;;23.00;59.00;24.70;102170.00;;;;5111087;28;20229;-87
2023/09/14 09:40:43;;;;;;;4.60;2.30;;;23.10;59.00;24.80;102167.00;;;;5092226;28;20205;-86
2023/09/14 09:43:15;;;;;;;6.70;3.40;;;23.10;59.00;24.90;102172.00;;;;5094692;28;20198;-87
2023/09/14 09:45:43;;;;;;;5.70;2.72;;;23.20;58.80;24.90;102170.00;;;;5094076;28;20202;-88
2023/09/14 09:48:11;;;;;;;3.33;2.30;;;23.30;58.80;25.10;102168.00;;;;5107090;28;20201;-88
2023/09/14 09:50:39;;;;;;;5.10;2.50;;;23.40;58.90;25.20;102175.00;;;;5107619;28;20194;-87
2023/09/14 09:53:14;;;;;;;7.20;3.17;;;23.50;58.90;25.30;102160.00;;;;5097750;28;20194;-86
2023/09/14 09:55:43;;;;;;;9.05;2.90;;;23.60;58.60;25.40;102166.00;;;;5103721;28;20201;-87
2023/09/14 09:58:11;;;;;;;3.60;2.70;;;23.70;58.40;25.60;102171.00;;;;5094017;28;20312;-87
2023/09/14 10:00:39;;;;;;;2.67;1.95;;;23.90;58.20;25.70;102159.00;;;;5109482;28;20197;-88
2023/09/14 10:03:07;;;;;;;4.50;2.47;;;24.00;58.20;25.80;102165.00;;;;5102992;28;20228;-87
2023/09/14 10:05:38;;;;;;;3.95;2.55;;;24.10;58.20;25.90;102170.00;;;;5092788;28;20206;-87
2023/09/14 10:08:20;;;;;;;3.70;2.10;;;24.20;58.10;26.00;102175.00;;;;5104331;28;20220;-87
2023/09/14 10:10:51;;;;;;;3.90;2.03;;;24.40;57.70;26.20;102168.00;;;;5100458;28;20198;-88
2023/09/14 10:13:21;;;;;;;7.47;2.72;;;24.60;57.50;26.30;102169.00;;;;5102998;28;20589;-86
2023/09/14 10:15:51;;;;;;;4.63;2.63;;;24.70;57.40;26.40;102171.00;;;;5106957;28;20724;-86
2023/09/14 10:18:21;;;;;;;4.68;2.30;;;24.80;56.70;26.50;102150.00;;;;5103439;28;20654;-89
2023/09/14 10:20:51;;;;;;;5.20;2.17;;;24.90;56.60;26.60;102167.00;;;;5101795;28;20197;-86
2023/09/14 10:23:21;;;;;;;5.28;1.83;;;25.00;56.10;26.60;102163.00;;;;5110388;28;20205;-89
2023/09/14 10:25:50;;;;;;;2.72;2.42;;;25.00;55.90;26.60;102169.00;;;;5108252;28;20284;-88
2023/09/14 10:28:21;;;;;;;5.45;2.33;;;25.10;55.80;26.50;102169.00;;;;5113362;28;20219;-88
2023/09/14 10:30:49;;;;;;;5.28;2.28;;;25.10;55.40;26.50;102172.00;;;;5109480;28;20216;-88
2023/09/14 10:33:25;;;;;;;4.38;1.92;;;25.00;55.30;26.40;102168.00;;;;5099419;28;20190;-89
2023/09/14 10:35:56;;;;;;;4.00;2.30;;;25.00;54.70;26.40;102170.00;;;;5109883;28;20254;-88
2023/09/14 10:38:25;;;;;;;3.17;1.88;;;25.00;54.70;26.40;102167.00;;;;5091737;28;20221;-90
2023/09/14 10:40:53;;;;;;;5.50;2.40;;;24.90;54.50;26.30;102165.00;;;;5113627;28;20221;-88
2023/09/14 10:43:20;;;;;;;4.40;2.22;;;24.80;54.50;26.30;102157.00;;;;5111106;28;20189;-88
2023/09/14 10:46:00;;;;;;;117.07;16.48;;;24.80;54.50;26.20;102159.00;;;;5114456;28;20203;-89
2023/09/14 10:48:31;;;;;;;15.88;3.67;;;24.70;54.40;26.10;102157.00;;;;5109539;28;20198;-89
2023/09/14 10:50:59;;;;;;;4.93;2.63;;;24.60;54.40;26.10;102154.00;;;;5112964;28;20193;-89
2023/09/14 10:53:32;;;;;;;4.63;2.10;;;24.50;54.50;26.00;102147.00;;;;5117632;28;20236;-89
2023/09/14 10:56:06;;;;;;;3.20;2.08;;;24.50;54.50;25.90;102145.00;;;;5117604;28;20195;-89
2023/09/14 10:58:41;;;;;;;4.97;2.08;;;24.40;54.70;25.90;102149.00;;;;5114335;28;20225;-89
2023/09/14 11:01:12;;;;;;;7.43;2.17;;;24.40;54.70;25.90;102140.00;;;;5115803;28;20228;-90
2023/09/14 11:04:15;;;;;;;3.30;2.38;;;24.40;54.90;25.90;102146.00;;;;5112539;28;20198;-89
2023/09/14 11:06:48;;;;;;;5.03;2.08;;;24.30;54.60;26.00;102146.00;;;;5106459;28;20201;-90
2023/09/14 11:09:24;;;;;;;4.88;2.08;;;24.40;55.30;26.10;102144.00;;;;5111121;27;20193;-89